Time;durP1;ratioP1;P1;durP2;ratioP2;P2;SDS_P1;SDS_P2;PMS_P1;PMS_P2;Temp;Humidity;BMP_temperature;BMP_pressure;BME280_temperature;BME280_humidity;BME280_pressure;Samples;Min_cycle;Max_cycle;Signal;HPM_P1;HPM_P2
2023/09/27 00:01:35;;;;;;;17.02;10.15;;;13.20;99.90;;;;;;4954793;28;20043;-75
2023/09/27 00:04:03;;;;;;;15.45;10.88;;;13.30;99.90;;;;;;4953802;28;20051;-77
2023/09/27 00:06:31;;;;;;;16.65;11.20;;;13.10;99.90;;;;;;4952217;29;20396;-76
2023/09/27 00:08:58;;;;;;;14.57;10.48;;;13.20;99.90;;;;;;4972111;28;20047;-75
2023/09/27 00:11:25;;;;;;;19.50;11.38;;;13.10;99.90;;;;;;4974890;28;20051;-75
2023/09/27 00:13:53;;;;;;;16.05;10.77;;;13.20;99.90;;;;;;4954739;29;20051;-76
2023/09/27 00:16:21;;;;;;;19.27;11.23;;;13.10;99.90;;;;;;4973392;28;20028;-76
2023/09/27 00:18:50;;;;;;;16.48;11.05;;;13.00;99.90;;;;;;4956944;29;20047;-77
2023/09/27 00:21:18;;;;;;;14.68;11.10;;;12.90;99.90;;;;;;4971655;28;20063;-76
2023/09/27 00:23:45;;;;;;;15.18;11.13;;;12.90;99.90;;;;;;4952574;28;20143;-76
2023/09/27 00:26:13;;;;;;;16.25;10.45;;;13.00;99.90;;;;;;4951862;28;20138;-75
2023/09/27 00:28:43;;;;;;;16.98;10.65;;;13.00;99.90;;;;;;4951153;28;20035;-76
2023/09/27 00:31:10;;;;;;;16.58;10.95;;;13.00;99.90;;;;;;4934698;29;20106;-77
2023/09/27 00:33:37;;;;;;;19.13;11.23;;;13.00;99.90;;;;;;4952579;29;20054;-74
2023/09/27 00:36:07;;;;;;;18.15;10.77;;;13.00;99.90;;;;;;4969002;28;20039;-76
2023/09/27 00:38:34;;;;;;;19.70;10.70;;;12.90;99.90;;;;;;4967916;28;20067;-78
2023/09/27 00:41:04;;;;;;;13.00;10.95;;;12.90;99.90;;;;;;4947649;29;20036;-76
2023/09/27 00:43:33;;;;;;;15.32;10.13;;;12.80;99.90;;;;;;4934999;28;20063;-76
2023/09/27 00:46:02;;;;;;;16.75;10.65;;;12.80;99.90;;;;;;4946525;29;20039;-76
2023/09/27 00:48:31;;;;;;;19.90;10.60;;;12.80;99.90;;;;;;4951806;28;20176;-78
2023/09/27 00:50:58;;;;;;;16.50;11.93;;;12.80;99.90;;;;;;4933996;29;20118;-78
2023/09/27 00:53:33;;;;;;;17.98;11.57;;;12.70;99.90;;;;;;4936134;29;20078;-77
2023/09/27 00:56:01;;;;;;;14.88;11.48;;;12.60;99.90;;;;;;4939427;29;20107;-76
2023/09/27 00:58:32;;;;;;;18.35;12.15;;;12.60;99.90;;;;;;4964584;28;20039;-77
2023/09/27 01:00:59;;;;;;;17.60;11.38;;;12.60;99.90;;;;;;4972133;29;20055;-77
2023/09/27 01:03:29;;;;;;;13.98;10.57;;;12.50;99.90;;;;;;4945963;29;20051;-77
2023/09/27 01:05:57;;;;;;;16.70;11.05;;;12.60;99.90;;;;;;4934615;29;20047;-78
2023/09/27 01:08:24;;;;;;;16.35;10.75;;;12.60;99.90;;;;;;4950485;29;20043;-75
2023/09/27 01:10:53;;;;;;;18.67;10.60;;;12.60;99.90;;;;;;4951602;28;20051;-75
2023/09/27 01:13:21;;;;;;;12.63;9.90;;;12.60;99.90;;;;;;4957622;28;20502;-77
2023/09/27 01:15:49;;;;;;;21.13;10.82;;;12.50;99.90;;;;;;4964252;28;20043;-77
2023/09/27 01:18:16;;;;;;;16.63;10.32;;;12.50;99.90;;;;;;4962324;28;20530;-76
2023/09/27 01:20:45;;;;;;;20.17;11.00;;;12.60;99.90;;;;;;4952738;28;20058;-77
2023/09/27 01:23:14;;;;;;;15.38;10.13;;;12.50;99.90;;;;;;4955361;28;20137;-77
2023/09/27 01:25:42;;;;;;;18.75;10.48;;;12.40;99.90;;;;;;4937833;29;20051;-76
2023/09/27 01:28:12;;;;;;;17.90;10.50;;;12.40;99.90;;;;;;4944935;29;20040;-74
2023/09/27 01:30:40;;;;;;;19.15;10.75;;;12.20;99.90;;;;;;4943472;28;20051;-76
2023/09/27 01:33:09;;;;;;;15.65;10.73;;;12.10;99.90;;;;;;4964588;28;20463;-78
2023/09/27 01:35:38;;;;;;;19.25;10.90;;;12.10;99.90;;;;;;4954748;28;20114;-77
2023/09/27 01:38:07;;;;;;;15.00;10.15;;;12.20;99.90;;;;;;4954452;28;20047;-77
2023/09/27 01:40:38;;;;;;;16.52;10.63;;;12.20;99.90;;;;;;4954512;28;20071;-78
2023/09/27 01:43:06;;;;;;;14.50;10.50;;;12.30;99.90;;;;;;4955506;28;20075;-77
2023/09/27 01:45:33;;;;;;;20.77;10.60;;;12.30;99.90;;;;;;4954463;28;20047;-77
2023/09/27 01:48:02;;;;;;;15.50;9.95;;;12.40;99.90;;;;;;4954265;28;20091;-77
2023/09/27 01:50:31;;;;;;;16.80;11.48;;;12.20;99.90;;;;;;4937165;29;20134;-78
2023/09/27 01:52:59;;;;;;;15.27;10.18;;;12.20;99.90;;;;;;4954009;28;20047;-78
2023/09/27 01:55:26;;;;;;;16.75;9.90;;;12.30;99.90;;;;;;4937709;29;20044;-78
2023/09/27 01:57:56;;;;;;;14.90;10.55;;;12.20;99.90;;;;;;4953408;29;20075;-77
2023/09/27 02:00:23;;;;;;;17.52;11.55;;;12.10;99.90;;;;;;4937960;29;20129;-76
2023/09/27 02:02:52;;;;;;;17.02;10.77;;;12.00;99.90;;;;;;4956204;28;20126;-77
2023/09/27 02:05:21;;;;;;;15.18;10.18;;;12.00;99.90;;;;;;4956051;29;20047;-77
2023/09/27 02:07:48;;;;;;;19.50;10.73;;;12.10;99.90;;;;;;4954243;28;20043;-77
2023/09/27 02:10:16;;;;;;;19.17;10.98;;;12.00;99.90;;;;;;4952879;28;20052;-77
2023/09/27 02:12:43;;;;;;;16.35;10.35;;;12.00;99.90;;;;;;4938495;28;20522;-76
2023/09/27 02:15:16;;;;;;;15.93;11.38;;;12.00;99.90;;;;;;4955958;29;20384;-78
2023/09/27 02:17:44;;;;;;;15.73;10.68;;;12.00;99.90;;;;;;4953142;29;20040;-77
2023/09/27 02:20:17;;;;;;;14.98;10.85;;;12.00;99.90;;;;;;4938175;29;20047;-77
2023/09/27 02:22:46;;;;;;;14.07;11.23;;;11.90;99.90;;;;;;4955418;28;20480;-78
2023/09/27 02:25:14;;;;;;;15.65;11.32;;;11.80;99.90;;;;;;4938364;29;20066;-78
2023/09/27 02:27:43;;;;;;;13.05;10.85;;;11.70;99.90;;;;;;4937641;29;20126;-76
2023/09/27 02:30:12;;;;;;;14.35;11.15;;;11.70;99.90;;;;;;4953764;28;20049;-77
2023/09/27 02:32:45;;;;;;;13.60;10.93;;;11.70;99.90;;;;;;4952327;29;20369;-77
2023/09/27 02:35:14;;;;;;;14.40;10.95;;;11.80;99.90;;;;;;4952565;28;20492;-77
2023/09/27 02:37:43;;;;;;;17.02;11.48;;;11.80;99.90;;;;;;4952295;28;20097;-78
2023/09/27 02:40:12;;;;;;;18.15;11.27;;;11.80;99.90;;;;;;4954063;29;20039;-77
2023/09/27 02:42:41;;;;;;;13.95;10.98;;;11.90;99.90;;;;;;4953735;29;20178;-76
2023/09/27 02:45:10;;;;;;;19.27;11.52;;;11.90;99.90;;;;;;4974391;23;20031;-81
2023/09/27 02:47:38;;;;;;;15.90;10.02;;;11.90;99.90;;;;;;4948892;28;20062;-80
2023/09/27 02:50:10;;;;;;;18.75;11.25;;;12.00;99.90;;;;;;4945049;28;20516;-81
2023/09/27 02:52:39;;;;;;;14.75;10.60;;;11.90;99.90;;;;;;4944561;28;20126;-80
2023/09/27 02:55:09;;;;;;;15.63;11.18;;;11.80;99.90;;;;;;4948526;28;20142;-81
2023/09/27 02:57:38;;;;;;;16.55;11.05;;;11.80;99.90;;;;;;4945485;28;20102;-80
2023/09/27 03:00:08;;;;;;;14.07;10.82;;;11.70;99.90;;;;;;4963824;28;20046;-81
2023/09/27 03:02:37;;;;;;;14.52;10.15;;;11.70;99.90;;;;;;4945258;28;20336;-81
2023/09/27 03:05:07;;;;;;;16.13;11.10;;;11.60;99.90;;;;;;4947374;28;20050;-81
2023/09/27 03:07:35;;;;;;;20.25;10.77;;;11.50;99.90;;;;;;4943087;28;20058;-81
2023/09/27 03:10:04;;;;;;;16.33;11.10;;;11.40;99.90;;;;;;4947545;28;20048;-82
2023/09/27 03:12:32;;;;;;;17.48;10.65;;;11.30;99.90;;;;;;4946800;28;20043;-81
2023/09/27 03:15:00;;;;;;;19.25;10.98;;;11.20;99.90;;;;;;4947471;28;20058;-82
2023/09/27 03:17:28;;;;;;;19.15;12.10;;;11.30;99.90;;;;;;4945213;28;20141;-82
2023/09/27 03:19:56;;;;;;;15.52;11.68;;;11.30;99.90;;;;;;4945967;28;20039;-80
2023/09/27 03:22:26;;;;;;;18.98;11.73;;;11.40;99.90;;;;;;4946278;28;20407;-81
2023/09/27 03:24:53;;;;;;;22.67;12.45;;;11.40;99.90;;;;;;4945891;28;20043;-81
2023/09/27 03:27:21;;;;;;;20.25;12.10;;;11.30;99.90;;;;;;4947536;28;20514;-82
2023/09/27 03:29:50;;;;;;;15.18;11.32;;;11.40;99.90;;;;;;4944681;28;20054;-80
2023/09/27 03:32:19;;;;;;;17.95;12.52;;;11.50;99.90;;;;;;4947202;28;20421;-81
2023/09/27 03:34:47;;;;;;;17.25;12.50;;;11.40;99.90;;;;;;4946672;28;20145;-82
2023/09/27 03:37:15;;;;;;;19.58;13.30;;;11.30;99.90;;;;;;4948586;28;20059;-82
2023/09/27 03:39:44;;;;;;;20.77;14.95;;;11.20;99.90;;;;;;4946557;28;20436;-80
2023/09/27 03:42:12;;;;;;;25.75;16.23;;;11.20;99.90;;;;;;4944518;28;20047;-78
2023/09/27 03:44:39;;;;;;;21.13;14.43;;;11.20;99.90;;;;;;4963962;28;20047;-83
2023/09/27 03:47:07;;;;;;;19.73;14.00;;;11.10;99.90;;;;;;4944780;28;20070;-83
2023/09/27 03:49:36;;;;;;;18.23;13.98;;;11.10;99.90;;;;;;4951102;28;20054;-83
2023/09/27 03:52:04;;;;;;;22.40;14.13;;;11.00;99.90;;;;;;4967708;28;20039;-83
2023/09/27 03:54:32;;;;;;;17.23;12.63;;;11.00;99.90;;;;;;4947999;28;20042;-81
2023/09/27 03:57:01;;;;;;;18.80;13.25;;;11.00;99.90;;;;;;4944175;28;20095;-84
2023/09/27 03:59:29;;;;;;;18.00;13.60;;;11.00;99.90;;;;;;4962570;28;20035;-83
2023/09/27 04:01:57;;;;;;;21.17;13.88;;;10.90;99.90;;;;;;4946315;28;20051;-82
2023/09/27 04:04:25;;;;;;;20.75;13.00;;;10.90;99.90;;;;;;4945903;28;20117;-83
2023/09/27 04:06:52;;;;;;;17.13;12.70;;;10.90;99.90;;;;;;4949291;28;20043;-84
2023/09/27 04:09:20;;;;;;;16.67;12.50;;;10.90;99.90;;;;;;4945895;28;20082;-81
2023/09/27 04:11:47;;;;;;;19.90;11.85;;;10.90;99.90;;;;;;4973131;28;20070;-83
2023/09/27 04:14:16;;;;;;;17.65;11.52;;;10.90;99.90;;;;;;4950417;28;20046;-83
2023/09/27 04:16:44;;;;;;;15.85;10.98;;;10.90;99.90;;;;;;4952335;28;20528;-83
2023/09/27 04:19:11;;;;;;;17.67;11.25;;;10.90;99.90;;;;;;4968906;28;20081;-83
2023/09/27 04:21:39;;;;;;;17.02;11.38;;;10.90;99.90;;;;;;4947773;28;20512;-84
2023/09/27 04:24:09;;;;;;;16.73;11.20;;;10.90;99.90;;;;;;4969235;28;20062;-83
2023/09/27 04:26:37;;;;;;;18.13;11.93;;;10.90;99.90;;;;;;4945929;28;20043;-82
2023/09/27 04:29:06;;;;;;;16.27;11.57;;;10.90;99.90;;;;;;4942574;28;20061;-84
2023/09/27 04:31:35;;;;;;;18.00;11.98;;;10.80;99.90;;;;;;4945738;28;20047;-83
2023/09/27 04:34:03;;;;;;;18.15;11.02;;;10.90;99.90;;;;;;4945708;28;20085;-83
2023/09/27 04:36:31;;;;;;;17.50;12.05;;;11.00;99.90;;;;;;4944586;28;20570;-83
2023/09/27 04:38:59;;;;;;;26.30;12.68;;;10.90;99.90;;;;;;4943062;28;20428;-81
2023/09/27 04:41:26;;;;;;;16.92;11.68;;;10.90;99.90;;;;;;4945620;28;20070;-82
2023/09/27 04:43:54;;;;;;;16.95;11.88;;;10.90;99.90;;;;;;4945526;28;20051;-83
2023/09/27 04:46:22;;;;;;;17.90;12.27;;;10.90;99.90;;;;;;4941115;28;20053;-82
2023/09/27 04:48:51;;;;;;;17.48;12.48;;;10.80;99.90;;;;;;4945887;28;20141;-82
2023/09/27 04:51:19;;;;;;;22.98;13.93;;;10.80;99.90;;;;;;4943057;28;20039;-83
2023/09/27 04:53:47;;;;;;;24.02;13.60;;;10.80;99.90;;;;;;4941075;28;20055;-82
2023/09/27 04:56:15;;;;;;;26.02;13.98;;;10.90;99.90;;;;;;4944061;28;20087;-82
2023/09/27 04:58:42;;;;;;;21.65;15.20;;;10.90;99.90;;;;;;4943597;28;20118;-82
2023/09/27 05:01:10;;;;;;;26.48;15.90;;;10.90;99.90;;;;;;4950774;28;20048;-83
2023/09/27 05:03:38;;;;;;;23.67;13.70;;;10.90;99.90;;;;;;4947330;28;20047;-83
2023/09/27 05:06:08;;;;;;;19.88;14.20;;;11.00;99.90;;;;;;4947134;28;20039;-82
2023/09/27 05:08:35;;;;;;;17.30;12.90;;;11.00;99.90;;;;;;4943669;28;20518;-81
2023/09/27 05:11:07;;;;;;;23.45;13.25;;;11.10;99.90;;;;;;4961592;28;20043;-84
2023/09/27 05:13:35;;;;;;;19.10;13.00;;;11.10;99.90;;;;;;4964250;28;20047;-82
2023/09/27 05:16:03;;;;;;;23.15;12.88;;;11.10;99.90;;;;;;4960655;28;20047;-86
2023/09/27 05:18:31;;;;;;;14.98;12.43;;;11.20;99.90;;;;;;4941117;28;20056;-85
2023/09/27 05:21:04;;;;;;;19.48;12.50;;;11.20;99.90;;;;;;4961103;28;20133;-82
2023/09/27 05:23:33;;;;;;;15.68;11.73;;;11.30;99.90;;;;;;4963413;28;20043;-85
2023/09/27 05:26:00;;;;;;;20.15;12.18;;;11.40;99.90;;;;;;4966935;28;20055;-81
2023/09/27 05:28:29;;;;;;;19.63;13.02;;;11.50;99.90;;;;;;4965199;28;20035;-83
2023/09/27 05:30:57;;;;;;;23.30;13.73;;;11.50;99.90;;;;;;4958900;28;20103;-85
2023/09/27 05:33:24;;;;;;;19.65;13.18;;;11.60;99.90;;;;;;4945438;28;20512;-84
2023/09/27 05:35:52;;;;;;;17.98;12.38;;;11.60;99.90;;;;;;4962048;28;20046;-84
2023/09/27 05:38:24;;;;;;;19.67;11.73;;;11.70;99.90;;;;;;4961968;28;20042;-82
2023/09/27 05:40:53;;;;;;;19.48;11.10;;;12.00;99.90;;;;;;4945610;28;20039;-83
2023/09/27 05:43:21;;;;;;;17.05;11.40;;;12.10;99.90;;;;;;4944604;28;20043;-85
2023/09/27 05:45:48;;;;;;;22.15;13.98;;;12.20;99.90;;;;;;4962704;28;20062;-82
2023/09/27 05:48:16;;;;;;;19.00;12.30;;;12.30;99.90;;;;;;4962432;28;20066;-84
2023/09/27 05:50:47;;;;;;;20.13;13.43;;;12.40;99.90;;;;;;4950196;28;20143;-85
2023/09/27 05:53:16;;;;;;;24.73;14.02;;;12.60;99.90;;;;;;4948512;28;20039;-82
2023/09/27 05:55:44;;;;;;;16.77;12.55;;;12.80;99.90;;;;;;4970384;28;20047;-83
2023/09/27 05:58:14;;;;;;;19.80;13.20;;;13.00;99.90;;;;;;4961926;28;20043;-82
2023/09/27 06:00:46;;;;;;;20.60;14.00;;;13.20;99.90;;;;;;4964251;28;20091;-83
2023/09/27 06:03:14;;;;;;;21.42;13.60;;;13.40;99.90;;;;;;4966850;28;20158;-82
2023/09/27 06:05:42;;;;;;;20.45;12.45;;;13.60;99.90;;;;;;4965794;28;20043;-82
2023/09/27 06:08:09;;;;;;;20.48;11.30;;;13.90;99.90;;;;;;4962515;28;20501;-82
2023/09/27 06:10:37;;;;;;;18.33;12.30;;;14.00;99.90;;;;;;4966523;28;20503;-85
2023/09/27 06:13:05;;;;;;;20.55;11.13;;;14.10;99.90;;;;;;4948390;28;20041;-83
2023/09/27 06:15:35;;;;;;;19.67;11.55;;;14.30;99.90;;;;;;4961859;28;20115;-84
2023/09/27 06:18:03;;;;;;;82.00;21.05;;;14.50;99.90;;;;;;4946833;28;20043;-84
2023/09/27 06:20:32;;;;;;;23.80;13.05;;;14.50;99.90;;;;;;4948413;28;20058;-83
2023/09/27 06:23:03;;;;;;;19.85;12.05;;;14.50;99.90;;;;;;4945879;28;20094;-83
2023/09/27 06:25:34;;;;;;;21.20;12.60;;;14.80;99.90;;;;;;4967413;28;20039;-85
2023/09/27 06:28:04;;;;;;;23.45;14.43;;;15.00;99.90;;;;;;4955965;28;20139;-82
2023/09/27 06:30:34;;;;;;;23.00;12.73;;;15.10;90.00;;;;;;4960375;28;20047;-85
2023/09/27 06:33:02;;;;;;;21.33;14.57;;;15.30;1.00;;;;;;4955103;28;20095;-84
2023/09/27 06:35:32;;;;;;;19.90;12.43;;;15.40;1.00;;;;;;4955196;28;20070;-84
2023/09/27 06:38:00;;;;;;;18.63;12.68;;;15.60;1.00;;;;;;4967878;28;20067;-84
2023/09/27 06:40:29;;;;;;;21.00;12.93;;;15.70;1.00;;;;;;4944893;28;20051;-84
2023/09/27 06:42:57;;;;;;;20.85;12.63;;;15.80;1.00;;;;;;4955531;28;20050;-84
2023/09/27 06:45:25;;;;;;;20.52;12.85;;;15.90;1.00;;;;;;4963918;28;20178;-85
2023/09/27 06:47:56;;;;;;;22.88;12.13;;;16.10;99.90;;;;;;4951709;28;20047;-83
2023/09/27 06:50:48;;;;;;;26.23;11.88;;;16.20;99.90;;;;;;4990873;28;20039;-84
2023/09/27 06:53:16;;;;;;;18.88;11.23;;;16.40;1.00;;;;;;4985174;28;20039;-83
2023/09/27 06:55:45;;;;;;;21.42;14.57;;;16.60;1.00;;;;;;4957683;28;20047;-85
2023/09/27 06:58:13;;;;;;;30.48;13.75;;;16.70;1.00;;;;;;4979672;28;20054;-84
2023/09/27 07:00:42;;;;;;;22.02;13.10;;;16.90;1.00;;;;;;4974037;28;20096;-85
2023/09/27 07:03:11;;;;;;;26.15;17.15;;;17.10;20.10;;;;;;4966468;28;20051;-83
2023/09/27 07:05:39;;;;;;;25.10;14.75;;;17.20;99.90;;;;;;4970875;28;20388;-83
2023/09/27 07:08:10;;;;;;;22.30;15.70;;;17.40;99.90;;;;;;4963376;28;20090;-85
2023/09/27 07:10:38;;;;;;;25.92;17.88;;;17.60;99.90;;;;;;4952748;28;20043;-86
2023/09/27 07:13:06;;;;;;;30.88;17.50;;;17.80;99.90;;;;;;4947056;28;20396;-84
2023/09/27 07:15:34;;;;;;;25.70;16.17;;;18.00;9.30;;;;;;4963227;28;20053;-84
2023/09/27 07:18:03;;;;;;;31.70;16.40;;;18.10;1.00;;;;;;4946337;28;20039;-85
2023/09/27 07:20:34;;;;;;;27.52;15.05;;;18.20;1.00;;;;;;4984077;28;20122;-84
2023/09/27 07:23:07;;;;;;;31.38;16.30;;;18.30;99.90;;;;;;4958002;28;20058;-83
2023/09/27 07:25:37;;;;;;;27.45;16.20;;;18.40;21.50;;;;;;4963224;28;20150;-83
2023/09/27 07:28:06;;;;;;;25.70;13.27;;;18.50;23.20;;;;;;4946723;28;20546;-84
2023/09/27 07:30:34;;;;;;;24.05;14.68;;;18.60;80.10;;;;;;4969541;28;20055;-83
2023/09/27 07:33:08;;;;;;;25.40;15.68;;;18.70;1.00;;;;;;4961794;28;20043;-83
2023/09/27 07:35:42;;;;;;;28.83;14.43;;;18.80;1.00;;;;;;4960414;28;20051;-84
2023/09/27 07:38:10;;;;;;;25.52;15.90;;;18.80;1.00;;;;;;4950154;28;20065;-84
2023/09/27 07:40:38;;;;;;;28.08;15.65;;;19.00;47.80;;;;;;4955913;28;20043;-83
2023/09/27 07:43:06;;;;;;;24.65;16.50;;;19.10;1.00;;;;;;4953696;28;20042;-83
2023/09/27 07:45:36;;;;;;;27.83;17.65;;;19.00;1.00;;;;;;4971981;28;20113;-83
2023/09/27 07:48:05;;;;;;;32.10;18.02;;;19.20;1.00;;;;;;4971800;28;20046;-83
2023/09/27 07:50:38;;;;;;;27.60;15.57;;;19.40;1.00;;;;;;4964192;28;20054;-84
2023/09/27 07:53:08;;;;;;;27.10;16.30;;;19.60;1.00;;;;;;4967818;28;20114;-84
2023/09/27 07:55:43;;;;;;;24.77;15.20;;;19.70;1.00;;;;;;4954660;28;20053;-84
2023/09/27 07:58:12;;;;;;;37.63;16.43;;;19.80;1.00;;;;;;4945112;28;20444;-84
2023/09/27 08:00:40;;;;;;;22.23;14.25;;;20.00;99.90;;;;;;4949904;28;20057;-85
2023/09/27 08:03:09;;;;;;;28.67;17.65;;;20.10;99.90;;;;;;4972205;28;20039;-84
2023/09/27 08:05:43;;;;;;;28.95;16.15;;;20.20;99.90;;;;;;4941684;28;20043;-84
2023/09/27 08:08:14;;;;;;;28.55;14.82;;;20.30;99.90;;;;;;4937936;28;20039;-84
2023/09/27 08:10:43;;;;;;;25.27;14.23;;;20.40;99.90;;;;;;4952019;28;20727;-85
2023/09/27 08:13:14;;;;;;;31.92;14.18;;;20.50;99.90;;;;;;4948572;28;20047;-85
2023/09/27 08:15:43;;;;;;;29.77;15.15;;;20.60;99.90;;;;;;4951279;28;21007;-84
2023/09/27 08:18:12;;;;;;;21.05;10.80;;;20.70;1.00;;;;;;4946007;28;20145;-85
2023/09/27 08:20:40;;;;;;;14.85;9.50;;;20.90;99.90;;;;;;4944739;28;20081;-84
2023/09/27 08:23:08;;;;;;;20.73;13.00;;;21.10;23.20;;;;;;4947554;28;20086;-84
2023/09/27 08:25:39;;;;;;;17.83;7.15;;;21.40;1.00;;;;;;4952985;28;20043;-85
2023/09/27 08:28:09;;;;;;;49.80;9.77;;;21.50;1.00;;;;;;4943130;28;20141;-83
2023/09/27 08:30:40;;;;;;;33.13;8.45;;;21.80;1.00;;;;;;4949608;28;20044;-84
2023/09/27 08:33:07;;;;;;;11.65;7.15;;;22.00;99.90;;;;;;4971997;28;20050;-85
2023/09/27 08:35:35;;;;;;;20.30;10.82;;;22.20;1.00;;;;;;4968970;28;20058;-86
2023/09/27 08:38:03;;;;;;;10.35;5.70;;;22.40;1.00;;;;;;4956484;28;20105;-85
2023/09/27 08:40:38;;;;;;;10.88;5.75;;;22.60;1.00;;;;;;4977733;28;20031;-84
2023/09/27 08:43:10;;;;;;;11.38;5.32;;;22.50;1.00;;;;;;4974206;28;20039;-84
2023/09/27 08:45:40;;;;;;;13.52;6.05;;;22.50;3.40;;;;;;4950212;28;20062;-86
2023/09/27 08:48:12;;;;;;;14.60;5.57;;;22.60;19.90;;;;;;4951082;28;20120;-85
2023/09/27 08:50:40;;;;;;;16.58;5.68;;;22.60;32.70;;;;;;4972177;28;20074;-85
2023/09/27 08:53:11;;;;;;;13.10;5.85;;;22.60;39.00;;;;;;4954658;28;20043;-83
2023/09/27 08:55:45;;;;;;;14.02;5.78;;;22.80;43.20;;;;;;4980031;28;20043;-85
2023/09/27 08:58:18;;;;;;;17.42;6.57;;;22.80;99.90;;;;;;4949910;28;20077;-85
2023/09/27 09:00:53;;;;;;;7.50;4.82;;;22.90;99.90;;;;;;4960577;28;20047;-84
2023/09/27 09:03:21;;;;;;;12.85;5.40;;;23.00;99.90;;;;;;4954198;28;20057;-85
2023/09/27 09:05:49;;;;;;;16.65;5.47;;;23.00;99.90;;;;;;4948003;28;20153;-85
2023/09/27 09:08:18;;;;;;;9.82;5.00;;;22.90;99.90;;;;;;4952951;28;20067;-84
2023/09/27 09:10:47;;;;;;;8.52;4.47;;;22.90;99.90;;;;;;4974909;28;20038;-85
2023/09/27 09:13:15;;;;;;;14.93;5.30;;;23.10;99.90;;;;;;4947331;28;20471;-84
2023/09/27 09:15:48;;;;;;;13.52;5.78;;;23.10;99.90;;;;;;4967476;28;20043;-85
2023/09/27 09:18:31;;;;;;;11.50;5.88;;;23.10;99.90;;;;;;4954533;28;20039;-86
2023/09/27 09:21:08;;;;;;;9.57;4.65;;;23.20;99.90;;;;;;4956789;28;20050;-85
2023/09/27 09:23:37;;;;;;;7.50;4.80;;;23.20;99.90;;;;;;4950747;28;20140;-84
2023/09/27 09:26:10;;;;;;;10.15;5.35;;;23.20;99.90;;;;;;4947623;28;20038;-85
2023/09/27 09:28:55;;;;;;;9.38;5.90;;;23.20;99.90;;;;;;4948980;28;20043;-84
2023/09/27 09:31:26;;;;;;;18.75;4.97;;;23.20;99.90;;;;;;4945121;28;20055;-84
2023/09/27 09:34:04;;;;;;;10.73;5.38;;;23.30;99.90;;;;;;4958801;28;20071;-86
2023/09/27 09:36:33;;;;;;;12.73;6.00;;;23.30;99.90;;;;;;4982364;28;20050;-84
2023/09/27 09:39:13;;;;;;;13.90;4.72;;;23.30;99.90;;;;;;4952003;28;20051;-86
2023/09/27 09:41:51;;;;;;;13.77;5.25;;;23.30;99.90;;;;;;4959837;28;20053;-87
2023/09/27 09:44:18;;;;;;;14.13;4.70;;;23.30;99.90;;;;;;4947607;28;20080;-86
2023/09/27 09:46:47;;;;;;;11.25;4.90;;;23.30;99.90;;;;;;4954932;28;20561;-86
2023/09/27 09:49:16;;;;;;;12.65;4.82;;;23.40;99.90;;;;;;4951418;28;20106;-86
2023/09/27 09:51:48;;;;;;;15.27;5.75;;;23.40;99.90;;;;;;4953648;28;20130;-85
2023/09/27 09:54:30;;;;;;;8.65;4.85;;;23.50;99.90;;;;;;4968309;28;20054;-84
2023/09/27 09:57:11;;;;;;;9.98;4.70;;;23.50;99.90;;;;;;4952536;28;20047;-85
2023/09/27 09:59:47;;;;;;;13.15;5.10;;;23.50;99.90;;;;;;4946944;28;20119;-86
2023/09/27 10:02:20;;;;;;;8.77;5.03;;;23.50;99.90;;;;;;4966777;28;20072;-85
2023/09/27 10:04:55;;;;;;;10.82;4.97;;;23.50;99.90;;;;;;4955813;28;20123;-84
2023/09/27 10:07:23;;;;;;;12.00;5.53;;;23.50;99.90;;;;;;4959080;28;20039;-85
2023/09/27 10:09:52;;;;;;;8.13;5.20;;;23.50;99.90;;;;;;4997446;28;20042;-85
2023/09/27 10:12:23;;;;;;;8.45;4.82;;;23.60;99.90;;;;;;4968259;28;20046;-85
2023/09/27 10:14:51;;;;;;;13.32;6.30;;;23.70;99.90;;;;;;4965928;28;20103;-83
2023/09/27 10:17:25;;;;;;;9.50;5.38;;;23.80;99.90;;;;;;4948282;28;20050;-85
2023/09/27 10:20:36;;;;;;;11.82;5.22;;;23.90;99.90;;;;;;4952971;28;20122;-84
2023/09/27 10:23:11;;;;;;;11.70;5.93;;;23.90;99.90;;;;;;4966841;28;20091;-85
2023/09/27 10:25:39;;;;;;;7.43;4.95;;;24.00;99.90;;;;;;4977288;28;20047;-85
2023/09/27 10:28:11;;;;;;;11.52;4.70;;;23.80;99.90;;;;;;4949815;28;20046;-86
2023/09/27 10:31:09;;;;;;;9.20;5.32;;;23.70;99.90;;;;;;4950631;28;20051;-87
2023/09/27 10:33:39;;;;;;;9.65;4.95;;;23.70;99.90;;;;;;4967049;28;20055;-85
2023/09/27 10:36:30;;;;;;;12.10;5.20;;;23.70;99.90;;;;;;4946989;28;20055;-84
2023/09/27 10:39:06;;;;;;;9.18;5.00;;;23.70;99.90;;;;;;4964357;28;20099;-84
2023/09/27 10:41:46;;;;;;;10.50;4.72;;;23.80;99.90;;;;;;4949830;28;20044;-85
2023/09/27 10:44:29;;;;;;;13.43;5.18;;;23.90;99.90;;;;;;4957842;28;20402;-84
2023/09/27 10:46:59;;;;;;;6.97;4.93;;;24.00;99.90;;;;;;4968589;28;20035;-83
2023/09/27 10:49:30;;;;;;;10.13;4.90;;;24.00;99.90;;;;;;4948350;28;20047;-85
2023/09/27 10:51:58;;;;;;;12.15;6.25;;;23.90;99.90;;;;;;4973456;28;20053;-85
2023/09/27 10:54:28;;;;;;;11.40;5.97;;;24.00;99.90;;;;;;4948829;28;20038;-84
2023/09/27 10:56:56;;;;;;;13.15;5.40;;;24.10;99.90;;;;;;4955726;28;20047;-86
2023/09/27 10:59:27;;;;;;;15.18;6.28;;;24.10;99.90;;;;;;4971347;28;20119;-85
2023/09/27 11:01:55;;;;;;;10.13;6.30;;;24.20;99.90;;;;;;4964306;28;20125;-84
2023/09/27 11:04:24;;;;;;;11.27;5.50;;;24.10;99.90;;;;;;4943260;28;20058;-85
2023/09/27 11:06:53;;;;;;;13.10;5.03;;;24.10;99.90;;;;;;4949484;28;20630;-84
2023/09/27 11:09:23;;;;;;;11.20;5.70;;;24.00;99.90;;;;;;4943945;28;20134;-85
2023/09/27 11:11:53;;;;;;;12.75;5.47;;;24.10;99.90;;;;;;4945418;28;20072;-84
2023/09/27 11:14:31;;;;;;;9.63;5.57;;;23.90;99.90;;;;;;4966079;28;20074;-83
2023/09/27 11:17:15;;;;;;;10.00;5.60;;;23.90;99.90;;;;;;4947073;28;20175;-84
2023/09/27 11:19:43;;;;;;;13.35;6.07;;;24.10;99.90;;;;;;4962040;28;20071;-86
2023/09/27 11:22:11;;;;;;;12.38;5.30;;;24.10;99.90;;;;;;4948889;28;20139;-84
2023/09/27 11:24:40;;;;;;;9.77;5.70;;;24.10;99.90;;;;;;4967130;28;20118;-79
2023/09/27 11:27:08;;;;;;;10.85;6.07;;;24.10;99.90;;;;;;4970657;28;20039;-85
2023/09/27 11:29:45;;;;;;;8.65;5.68;;;24.20;99.90;;;;;;4957747;28;20039;-84
2023/09/27 11:32:14;;;;;;;11.13;5.28;;;24.20;99.90;;;;;;4953270;28;20038;-82
2023/09/27 11:34:42;;;;;;;9.32;6.70;;;24.10;99.90;;;;;;4950170;28;20081;-84
2023/09/27 11:37:21;;;;;;;12.35;5.75;;;24.20;99.90;;;;;;4944515;28;20154;-83
2023/09/27 11:39:52;;;;;;;10.48;4.97;;;24.30;99.90;;;;;;4947938;28;20051;-83
2023/09/27 11:42:24;;;;;;;12.15;6.20;;;24.30;99.90;;;;;;4961575;28;20047;-82
2023/09/27 11:45:05;;;;;;;10.52;4.93;;;24.40;99.90;;;;;;4950375;28;20137;-88
2023/09/27 11:47:33;;;;;;;9.80;6.25;;;24.30;99.90;;;;;;4950647;28;20051;-85
2023/09/27 11:50:05;;;;;;;10.18;5.10;;;24.40;99.90;;;;;;4967815;28;20118;-86
2023/09/27 11:52:39;;;;;;;8.45;5.75;;;24.50;99.90;;;;;;4952078;28;20051;-86
2023/09/27 11:55:09;;;;;;;14.25;5.70;;;24.60;99.90;;;;;;4950042;28;20134;-86
2023/09/27 11:57:37;;;;;;;12.23;5.10;;;24.70;99.90;;;;;;4948051;28;20447;-83
2023/09/27 12:00:13;;;;;;;9.45;5.57;;;24.60;99.90;;;;;;4946863;28;20043;-85
2023/09/27 12:02:51;;;;;;;11.23;5.30;;;24.70;99.90;;;;;;4973311;28;20054;-86
2023/09/27 12:05:19;;;;;;;10.30;5.90;;;24.80;99.90;;;;;;4939380;28;20043;-84
2023/09/27 12:07:54;;;;;;;11.15;6.13;;;24.90;99.90;;;;;;4962548;28;20571;-87
2023/09/27 12:10:22;;;;;;;9.48;5.95;;;24.90;99.90;;;;;;4951337;28;20071;-87
2023/09/27 12:12:54;;;;;;;10.32;5.05;;;24.90;99.90;;;;;;4948736;28;20047;-86
2023/09/27 12:15:28;;;;;;;15.05;5.15;;;24.80;99.90;;;;;;4945844;28;20047;-87
2023/09/27 12:17:58;;;;;;;14.02;6.80;;;24.70;99.90;;;;;;4954356;28;20102;-87
2023/09/27 12:20:30;;;;;;;13.38;5.82;;;24.90;99.90;;;;;;4963034;28;20126;-87
2023/09/27 12:22:57;;;;;;;6.85;5.00;;;24.70;99.90;;;;;;4960581;28;20043;-81
2023/09/27 12:25:29;;;;;;;12.23;5.57;;;24.70;99.90;;;;;;4955104;28;20570;-88
2023/09/27 12:28:16;;;;;;;9.60;5.18;;;24.70;99.90;;;;;;4956732;28;20149;-86
2023/09/27 12:31:01;;;;;;;7.57;6.07;;;24.60;99.90;;;;;;4940251;28;20051;-87
2023/09/27 12:33:29;;;;;;;7.40;5.25;;;24.70;99.90;;;;;;4952157;28;20051;-87
2023/09/27 12:35:58;;;;;;;7.43;5.65;;;24.80;99.90;;;;;;4950631;28;20050;-86
2023/09/27 12:38:29;;;;;;;10.50;4.90;;;24.80;99.90;;;;;;4950183;28;20050;-85
2023/09/27 12:41:00;;;;;;;11.18;5.22;;;24.70;99.90;;;;;;4931407;29;20472;-87
2023/09/27 12:43:50;;;;;;;11.35;5.00;;;24.70;99.90;;;;;;4949141;28;20134;-85
2023/09/27 12:46:23;;;;;;;7.95;5.15;;;24.70;99.90;;;;;;4954809;28;20119;-86
2023/09/27 12:48:50;;;;;;;7.85;5.20;;;24.90;99.90;;;;;;4969157;28;20039;-84